createdAt,value
2023-09-23T00:01:39.180Z,4.55
2023-09-23T00:04:07.108Z,5.25
2023-09-23T00:06:34.307Z,5.30
2023-09-23T00:09:05.709Z,5.03
2023-09-23T00:11:32.893Z,4.90
2023-09-23T00:14:00.539Z,5.20
2023-09-23T00:16:27.863Z,5.30
2023-09-23T00:18:55.938Z,5.40
2023-09-23T00:21:23.144Z,5.68
2023-09-23T00:23:50.292Z,4.80
2023-09-23T00:26:19.081Z,5.18
2023-09-23T00:28:52.488Z,5.90
2023-09-23T00:31:20.428Z,5.28
2023-09-23T00:33:50.117Z,5.20
2023-09-23T00:38:44.689Z,5.28
2023-09-23T00:41:12.117Z,5.28
2023-09-23T00:43:39.327Z,6.13
2023-09-23T00:46:07.184Z,5.78
2023-09-23T00:48:39.813Z,5.95
2023-09-23T00:51:10.794Z,5.88
2023-09-23T00:53:41.436Z,5.55
2023-09-23T00:56:10.174Z,6.00
2023-09-23T00:58:38.351Z,6.53
2023-09-23T01:01:09.782Z,7.10
2023-09-23T01:03:40.375Z,6.65
2023-09-23T01:06:17.696Z,7.53
2023-09-23T01:08:50.855Z,6.50
2023-09-23T01:11:19.529Z,7.45
2023-09-23T01:13:52.147Z,8.80
2023-09-23T01:16:20.360Z,7.60
2023-09-23T01:18:50.283Z,7.50
2023-09-23T01:21:19.798Z,7.55
2023-09-23T01:23:47.775Z,7.50
2023-09-23T01:26:16.547Z,8.20
2023-09-23T01:28:45.092Z,8.05
2023-09-23T01:31:12.805Z,8.45
2023-09-23T01:33:40.319Z,7.32
2023-09-23T01:36:07.759Z,7.47
2023-09-23T01:38:34.834Z,7.72
2023-09-23T01:41:03.589Z,7.68
2023-09-23T01:43:32.295Z,7.43
2023-09-23T01:46:05.084Z,8.02
2023-09-23T01:48:33.090Z,7.70
2023-09-23T01:51:01.023Z,7.63
2023-09-23T01:53:29.685Z,8.02
2023-09-23T01:55:57.667Z,7.25
2023-09-23T01:58:25.015Z,7.65
2023-09-23T02:00:53.500Z,6.95
2023-09-23T02:03:21.743Z,7.63
2023-09-23T02:05:49.256Z,7.70
2023-09-23T02:08:17.417Z,8.05
2023-09-23T02:10:46.576Z,6.93
2023-09-23T02:13:13.980Z,6.90
2023-09-23T02:15:41.952Z,7.10
2023-09-23T02:18:09.512Z,7.10
2023-09-23T02:20:37.317Z,7.25
2023-09-23T02:23:05.450Z,8.02
2023-09-23T02:25:32.822Z,6.75
2023-09-23T02:28:00.459Z,7.18
2023-09-23T02:30:27.611Z,6.88
2023-09-23T02:32:54.804Z,7.28
2023-09-23T02:35:22.112Z,7.45
2023-09-23T02:37:50.267Z,7.15
2023-09-23T02:40:19.550Z,7.00
2023-09-23T02:42:52.947Z,7.22
2023-09-23T02:45:22.111Z,8.10
2023-09-23T02:47:49.463Z,7.00
2023-09-23T02:50:18.844Z,7.93
2023-09-23T02:52:50.267Z,8.18
2023-09-23T02:55:21.974Z,7.28
2023-09-23T02:57:51.897Z,6.97
2023-09-23T03:00:21.621Z,7.97
2023-09-23T03:02:59.818Z,7.13
2023-09-23T03:05:31.330Z,8.85
2023-09-23T03:08:01.173Z,7.45
2023-09-23T03:10:35.618Z,9.07
2023-09-23T03:13:11.592Z,7.60
2023-09-23T03:15:47.865Z,7.05
2023-09-23T03:18:16.641Z,8.25
2023-09-23T03:20:45.175Z,6.93
2023-09-23T03:23:12.416Z,7.57
2023-09-23T03:25:58.417Z,7.97
2023-09-23T03:28:26.164Z,7.25
2023-09-23T03:31:01.033Z,7.30
2023-09-23T03:33:28.784Z,7.72
2023-09-23T03:35:56.994Z,8.15
2023-09-23T03:38:26.842Z,7.75
2023-09-23T03:41:00.419Z,7.22
2023-09-23T03:43:28.323Z,7.22
2023-09-23T03:45:55.638Z,7.05
2023-09-23T03:48:23.431Z,7.32
2023-09-23T03:50:54.544Z,7.55
2023-09-23T03:53:25.495Z,6.82
2023-09-23T03:55:55.810Z,7.65
2023-09-23T03:58:23.849Z,8.00
2023-09-23T04:00:51.165Z,7.75
2023-09-23T04:03:19.664Z,7.45
2023-09-23T04:06:00.006Z,7.30
2023-09-23T04:08:29.058Z,7.50
2023-09-23T04:10:56.445Z,7.32
2023-09-23T04:13:23.574Z,7.30
2023-09-23T04:15:50.941Z,8.05
2023-09-23T04:18:20.330Z,7.45
2023-09-23T04:20:50.104Z,7.25
2023-09-23T04:23:17.448Z,6.43
2023-09-23T04:25:45.410Z,7.18
2023-09-23T04:28:13.023Z,6.38
2023-09-23T04:30:40.939Z,7.22
2023-09-23T04:33:08.221Z,6.95
2023-09-23T04:35:36.192Z,7.07
2023-09-23T04:38:04.036Z,6.68
2023-09-23T04:40:31.364Z,6.70
2023-09-23T04:42:58.696Z,7.10
2023-09-23T04:45:26.016Z,7.68
2023-09-23T04:47:53.188Z,7.05
2023-09-23T04:50:24.424Z,7.47
2023-09-23T04:52:51.994Z,7.25
2023-09-23T04:55:20.457Z,8.18
2023-09-23T04:57:47.720Z,8.55
2023-09-23T05:00:18.367Z,7.07
2023-09-23T05:02:45.740Z,7.13
2023-09-23T05:05:13.497Z,7.47
2023-09-23T05:07:40.952Z,7.45
2023-09-23T05:10:08.614Z,7.25
2023-09-23T05:12:35.704Z,7.30
2023-09-23T05:15:04.710Z,6.72
2023-09-23T05:17:32.693Z,6.35
2023-09-23T05:20:00.119Z,7.10
2023-09-23T05:22:27.304Z,7.35
2023-09-23T05:24:58.273Z,7.90
2023-09-23T05:27:25.596Z,6.57
2023-09-23T05:29:53.245Z,8.55
2023-09-23T05:32:21.829Z,6.90
2023-09-23T05:34:52.741Z,7.32
2023-09-23T05:37:20.653Z,7.47
2023-09-23T05:39:47.797Z,7.25
2023-09-23T05:42:21.389Z,6.50
2023-09-23T05:44:48.629Z,6.78
2023-09-23T05:47:15.792Z,8.15
2023-09-23T05:49:45.350Z,8.70
2023-09-23T05:52:16.036Z,6.97
2023-09-23T05:54:43.548Z,7.55
2023-09-23T05:57:10.918Z,7.68
2023-09-23T05:59:38.116Z,6.70
2023-09-23T06:02:09.886Z,7.35
2023-09-23T06:04:37.316Z,6.72
2023-09-23T06:07:05.970Z,8.70
2023-09-23T06:09:33.211Z,7.78
2023-09-23T06:12:00.400Z,7.32
2023-09-23T06:14:27.822Z,6.75
2023-09-23T06:16:55.197Z,6.90
2023-09-23T06:19:22.664Z,6.63
2023-09-23T06:21:50.075Z,6.28
2023-09-23T06:24:17.323Z,6.40
2023-09-23T06:26:44.529Z,6.93
2023-09-23T06:29:15.420Z,6.60
2023-09-23T06:31:42.737Z,6.70
2023-09-23T06:34:09.888Z,5.70
2023-09-23T06:36:37.000Z,6.10
2023-09-23T06:39:04.310Z,6.43
2023-09-23T06:41:31.367Z,7.40
2023-09-23T06:44:00.181Z,6.57
2023-09-23T06:46:27.493Z,6.55
2023-09-23T06:48:54.661Z,9.20
2023-09-23T06:51:21.899Z,5.95
2023-09-23T06:53:49.357Z,5.78
2023-09-23T06:56:16.745Z,5.82
2023-09-23T06:58:43.884Z,5.65
2023-09-23T07:01:11.066Z,5.90
2023-09-23T07:03:38.227Z,5.57
2023-09-23T07:06:05.384Z,5.80
2023-09-23T07:08:32.550Z,5.50
2023-09-23T07:10:59.798Z,5.72
2023-09-23T07:13:27.097Z,5.85
2023-09-23T07:15:54.250Z,5.72
2023-09-23T07:18:21.569Z,5.90
2023-09-23T07:20:48.732Z,5.60
2023-09-23T07:23:15.937Z,5.18
2023-09-23T07:25:43.739Z,5.15
2023-09-23T07:28:11.349Z,5.38
2023-09-23T07:30:39.485Z,5.07
2023-09-23T07:33:07.110Z,4.93
2023-09-23T07:35:35.307Z,4.75
2023-09-23T07:38:04.120Z,5.60
2023-09-23T07:40:32.175Z,5.32
2023-09-23T07:42:59.459Z,5.25
2023-09-23T07:45:26.936Z,5.93
2023-09-23T07:47:54.323Z,5.30
2023-09-23T07:50:22.148Z,5.22
2023-09-23T07:52:49.547Z,5.10
2023-09-23T07:55:17.047Z,5.03
2023-09-23T07:57:46.246Z,4.70
2023-09-23T08:00:13.773Z,4.68
2023-09-23T08:02:40.954Z,4.45
2023-09-23T08:05:08.687Z,4.25
2023-09-23T08:07:36.029Z,4.55
2023-09-23T08:10:05.282Z,4.60
2023-09-23T08:12:35.501Z,4.13
2023-09-23T08:15:03.136Z,4.70
2023-09-23T08:17:32.740Z,5.03
2023-09-23T08:20:00.894Z,4.90
2023-09-23T08:22:28.144Z,4.07
2023-09-23T08:24:55.293Z,4.55
2023-09-23T08:27:22.382Z,5.35
2023-09-23T08:29:50.970Z,4.65
2023-09-23T08:32:18.180Z,4.15
2023-09-23T08:34:45.691Z,4.18
2023-09-23T08:37:13.020Z,4.03
2023-09-23T08:39:40.367Z,3.92
2023-09-23T08:42:08.850Z,3.95
2023-09-23T08:44:36.555Z,3.78
2023-09-23T08:47:03.932Z,3.88
2023-09-23T08:49:31.959Z,3.83
2023-09-23T08:52:00.775Z,4.32
2023-09-23T08:54:30.164Z,4.03
2023-09-23T08:56:57.753Z,4.55
2023-09-23T08:59:28.071Z,4.38
2023-09-23T09:01:56.801Z,5.40
2023-09-23T09:04:25.559Z,4.25
2023-09-23T09:06:54.704Z,4.40
2023-09-23T09:09:22.419Z,3.60
2023-09-23T09:11:51.143Z,3.40
2023-09-23T09:14:19.222Z,3.80
2023-09-23T09:16:47.121Z,3.30
2023-09-23T09:19:14.540Z,3.40
2023-09-23T09:21:42.652Z,3.90
2023-09-23T09:24:13.154Z,4.20
2023-09-23T09:26:40.340Z,4.03
2023-09-23T09:29:08.183Z,3.92
2023-09-23T09:31:37.262Z,3.72
2023-09-23T09:34:07.099Z,3.47
2023-09-23T09:36:37.708Z,3.88
2023-09-23T09:39:09.836Z,3.33
2023-09-23T09:41:59.276Z,3.55
2023-09-23T09:44:31.316Z,3.72
2023-09-23T09:47:00.798Z,3.15
2023-09-23T09:49:28.253Z,3.58
2023-09-23T09:51:56.180Z,3.63
2023-09-23T09:54:26.583Z,12.20
2023-09-23T09:56:57.285Z,3.90
2023-09-23T09:59:28.633Z,4.05
2023-09-23T10:02:00.278Z,3.33
2023-09-23T10:04:34.323Z,3.80
2023-09-23T10:07:07.684Z,3.38
2023-09-23T10:09:39.330Z,4.00
2023-09-23T10:12:08.337Z,4.82
2023-09-23T10:14:35.552Z,3.40
2023-09-23T10:17:05.274Z,3.50
2023-09-23T10:19:34.085Z,3.20
2023-09-23T10:22:30.555Z,3.47
2023-09-23T10:25:01.048Z,3.28
2023-09-23T10:27:29.361Z,7.28
2023-09-23T10:29:59.216Z,3.95
2023-09-23T10:32:27.574Z,3.78
2023-09-23T10:35:00.169Z,3.33
2023-09-23T10:37:34.996Z,3.75
2023-09-23T10:40:07.724Z,3.70
2023-09-23T10:42:35.995Z,3.13
2023-09-23T10:45:03.214Z,3.25
2023-09-23T10:47:32.808Z,3.40
2023-09-23T10:50:00.550Z,3.22
2023-09-23T10:52:27.741Z,3.75
2023-09-23T10:54:56.000Z,3.40
2023-09-23T10:57:24.737Z,3.92
2023-09-23T10:59:53.309Z,3.50
2023-09-23T11:02:21.713Z,3.42
2023-09-23T11:07:18.090Z,3.45
2023-09-23T11:09:46.821Z,3.33
2023-09-23T11:12:19.510Z,3.25
2023-09-23T11:14:47.740Z,3.15
2023-09-23T11:17:26.861Z,2.97
2023-09-23T11:19:55.914Z,2.95
2023-09-23T11:22:27.604Z,3.00
2023-09-23T11:24:56.687Z,3.78
2023-09-23T11:27:25.564Z,3.05
2023-09-23T11:29:53.731Z,2.90
2023-09-23T11:32:25.314Z,3.42
2023-09-23T11:34:53.611Z,3.10
2023-09-23T11:37:24.454Z,3.25
2023-09-23T11:39:52.004Z,3.22
2023-09-23T11:42:20.547Z,3.30
2023-09-23T11:47:15.125Z,6.40
2023-09-23T11:49:42.267Z,3.30
2023-09-23T11:52:14.051Z,3.40
2023-09-23T11:54:42.260Z,3.20
2023-09-23T11:57:09.927Z,4.32
2023-09-23T11:59:39.604Z,3.22
2023-09-23T12:02:09.962Z,2.90
2023-09-23T12:04:37.783Z,3.30
2023-09-23T12:07:06.134Z,3.53
2023-09-23T12:09:36.981Z,3.05
2023-09-23T12:12:04.466Z,3.33
2023-09-23T12:14:31.755Z,3.10
2023-09-23T12:16:59.141Z,3.53
2023-09-23T12:19:26.302Z,3.67
2023-09-23T12:21:53.424Z,3.05
2023-09-23T12:24:20.505Z,4.75
2023-09-23T12:26:47.762Z,3.75
2023-09-23T12:29:14.982Z,4.45
2023-09-23T12:31:42.181Z,3.90
2023-09-23T12:34:09.394Z,4.00
2023-09-23T12:36:36.530Z,3.97
2023-09-23T12:39:03.856Z,3.70
2023-09-23T12:41:31.021Z,3.15
2023-09-23T12:43:58.512Z,3.17
2023-09-23T12:46:25.762Z,3.30
2023-09-23T12:48:52.898Z,3.33
2023-09-23T12:51:20.955Z,3.15
2023-09-23T12:53:48.961Z,3.28
2023-09-23T12:56:18.557Z,3.50
2023-09-23T12:58:46.328Z,4.03
2023-09-23T13:01:14.022Z,3.67
2023-09-23T13:03:41.578Z,3.42
2023-09-23T13:06:09.606Z,3.35
2023-09-23T13:08:36.847Z,3.55
2023-09-23T13:11:04.420Z,4.05
2023-09-23T13:13:31.700Z,3.78
2023-09-23T13:15:59.252Z,3.60
2023-09-23T13:18:27.025Z,3.17
2023-09-23T13:20:54.281Z,4.75
2023-09-23T13:23:21.484Z,6.45
2023-09-23T13:25:49.485Z,3.90
2023-09-23T13:28:17.626Z,4.03
2023-09-23T13:30:45.679Z,3.38
2023-09-23T13:33:13.465Z,3.45
2023-09-23T13:35:40.782Z,3.50
2023-09-23T13:38:08.163Z,5.15
2023-09-23T13:40:37.023Z,3.00
2023-09-23T13:43:04.411Z,3.53
2023-09-23T13:45:31.631Z,3.90
2023-09-23T13:47:59.162Z,4.30
2023-09-23T13:50:27.097Z,3.63
2023-09-23T13:52:54.499Z,4.32
2023-09-23T13:55:21.640Z,3.60
2023-09-23T13:57:48.990Z,3.80
2023-09-23T14:00:16.374Z,3.03
2023-09-23T14:02:43.675Z,3.38
2023-09-23T14:05:12.304Z,3.80
2023-09-23T14:07:39.939Z,3.10
2023-09-23T14:10:20.474Z,3.33
2023-09-23T14:12:49.353Z,3.30
2023-09-23T14:15:17.259Z,3.50
2023-09-23T14:17:44.619Z,4.05
2023-09-23T14:20:14.252Z,3.55
2023-09-23T14:22:46.668Z,3.70
2023-09-23T14:25:15.487Z,4.00
2023-09-23T14:27:44.209Z,4.45
2023-09-23T14:30:12.286Z,4.30
2023-09-23T14:32:39.838Z,3.35
2023-09-23T14:35:07.576Z,4.18
2023-09-23T14:37:35.350Z,3.28
2023-09-23T14:40:03.411Z,4.03
2023-09-23T14:42:32.170Z,4.10
2023-09-23T14:44:59.440Z,2.97
2023-09-23T14:47:27.521Z,4.90
2023-09-23T14:49:55.762Z,3.53
2023-09-23T14:52:23.914Z,4.72
2023-09-23T14:54:51.016Z,4.20
2023-09-23T14:57:19.980Z,3.17
2023-09-23T15:02:14.305Z,4.18
2023-09-23T15:04:41.423Z,3.55
2023-09-23T15:07:08.535Z,4.13
2023-09-23T15:09:35.809Z,3.45
2023-09-23T15:12:02.943Z,3.90
2023-09-23T15:14:30.050Z,3.78
2023-09-23T15:16:57.384Z,4.35
2023-09-23T15:19:25.019Z,3.72
2023-09-23T15:21:52.198Z,3.67
2023-09-23T15:24:19.284Z,3.92
2023-09-23T15:26:47.934Z,4.72
2023-09-23T15:29:15.465Z,5.28
2023-09-23T15:31:42.572Z,4.70
2023-09-23T15:34:09.749Z,6.65
2023-09-23T15:36:37.004Z,4.70
2023-09-23T15:39:05.788Z,4.43
2023-09-23T15:41:32.994Z,4.82
2023-09-23T15:44:00.086Z,4.07
2023-09-23T15:46:27.406Z,4.07
2023-09-23T15:48:54.625Z,4.22
2023-09-23T15:51:21.823Z,4.88
2023-09-23T15:53:49.146Z,4.40
2023-09-23T15:56:16.600Z,4.97
2023-09-23T15:58:45.253Z,4.28
2023-09-23T16:01:12.935Z,4.60
2023-09-23T16:03:40.284Z,4.18
2023-09-23T16:06:07.595Z,4.30
2023-09-23T16:08:34.804Z,4.53
2023-09-23T16:11:04.612Z,4.70
2023-09-23T16:13:34.017Z,4.82
2023-09-23T16:16:01.428Z,5.68
2023-09-23T16:18:28.825Z,6.72
2023-09-23T16:20:56.062Z,5.65
2023-09-23T16:23:23.343Z,6.95
2023-09-23T16:25:50.541Z,6.05
2023-09-23T16:28:17.694Z,6.57
2023-09-23T16:30:45.735Z,7.15
2023-09-23T16:33:13.812Z,7.95
2023-09-23T16:35:41.433Z,9.20
2023-09-23T16:38:08.683Z,7.20
2023-09-23T16:40:37.293Z,7.40
2023-09-23T16:43:05.157Z,6.35
2023-09-23T16:45:32.389Z,5.95
2023-09-23T16:47:59.619Z,5.85
2023-09-23T16:50:27.184Z,5.85
2023-09-23T16:52:54.520Z,6.05
2023-09-23T16:55:21.902Z,6.18
2023-09-23T16:57:49.149Z,6.88
2023-09-23T17:00:18.242Z,8.93
2023-09-23T17:02:46.016Z,11.10
2023-09-23T17:05:14.205Z,10.10
2023-09-23T17:07:41.365Z,11.07
2023-09-23T17:10:09.686Z,9.27
2023-09-23T17:12:37.026Z,7.50
2023-09-23T17:15:05.308Z,7.03
2023-09-23T17:17:33.273Z,6.20
2023-09-23T17:20:01.338Z,6.30
2023-09-23T17:22:31.495Z,6.38
2023-09-23T17:24:58.671Z,6.10
2023-09-23T17:27:25.896Z,5.97
2023-09-23T17:29:53.146Z,6.53
2023-09-23T17:32:20.283Z,6.47
2023-09-23T17:34:47.525Z,7.25
2023-09-23T17:37:14.614Z,6.68
2023-09-23T17:39:41.724Z,7.43
2023-09-23T17:42:08.916Z,5.75
2023-09-23T17:44:38.021Z,6.05
2023-09-23T17:47:06.144Z,5.82
2023-09-23T17:49:33.267Z,5.25
2023-09-23T17:52:00.430Z,4.80
2023-09-23T17:54:27.792Z,5.03
2023-09-23T17:56:55.142Z,4.97
2023-09-23T17:59:22.371Z,4.32
2023-09-23T18:01:49.736Z,4.97
2023-09-23T18:04:17.281Z,4.65
2023-09-23T18:06:44.724Z,5.00
2023-09-23T18:09:11.926Z,5.38
2023-09-23T18:11:39.251Z,5.28
2023-09-23T18:14:06.548Z,4.60
2023-09-23T18:16:33.838Z,5.32
2023-09-23T18:19:01.045Z,5.45
2023-09-23T18:21:28.374Z,5.43
2023-09-23T18:23:55.756Z,6.00
2023-09-23T18:26:23.164Z,5.63
2023-09-23T18:28:50.341Z,5.30
2023-09-23T18:31:17.419Z,5.20
2023-09-23T18:33:44.903Z,5.18
2023-09-23T18:36:12.365Z,7.30
2023-09-23T18:38:39.752Z,6.45
2023-09-23T18:41:07.043Z,6.20
2023-09-23T18:43:34.357Z,5.47
2023-09-23T18:46:01.667Z,5.93
2023-09-23T18:48:31.810Z,4.82
2023-09-23T18:51:00.469Z,5.00
2023-09-23T18:53:28.141Z,5.53
2023-09-23T18:55:55.947Z,5.10
2023-09-23T18:58:23.210Z,4.13
2023-09-23T19:00:50.572Z,4.35
2023-09-23T19:03:18.741Z,4.70
2023-09-23T19:05:47.510Z,4.72
2023-09-23T19:08:15.530Z,4.57
2023-09-23T19:10:43.017Z,4.22
2023-09-23T19:13:10.404Z,4.03
2023-09-23T19:15:37.586Z,5.25
2023-09-23T19:18:04.942Z,4.38
2023-09-23T19:20:32.596Z,5.30
2023-09-23T19:22:59.923Z,4.88
2023-09-23T19:25:27.219Z,5.05
2023-09-23T19:27:54.409Z,4.20
2023-09-23T19:30:21.723Z,5.63
2023-09-23T19:32:50.954Z,4.35
2023-09-23T19:35:18.744Z,4.22
2023-09-23T19:37:46.373Z,9.35
2023-09-23T19:40:13.679Z,5.60
2023-09-23T19:42:40.904Z,5.63
2023-09-23T19:45:09.850Z,5.32
2023-09-23T19:47:38.248Z,5.18
2023-09-23T19:50:07.507Z,5.53
2023-09-23T19:52:35.463Z,5.63
2023-09-23T19:55:03.025Z,4.97
2023-09-23T19:57:32.150Z,5.22
2023-09-23T20:00:00.604Z,6.05
2023-09-23T20:02:28.050Z,5.55
2023-09-23T20:04:55.351Z,5.57
2023-09-23T20:07:24.867Z,5.53
2023-09-23T20:09:52.198Z,6.45
2023-09-23T20:12:20.698Z,5.82
2023-09-23T20:14:47.852Z,5.40
2023-09-23T20:17:17.486Z,5.63
2023-09-23T20:19:44.727Z,6.00
2023-09-23T20:22:11.957Z,6.00
2023-09-23T20:24:39.066Z,5.68
2023-09-23T20:27:06.217Z,5.57
2023-09-23T20:29:33.359Z,5.80
2023-09-23T20:32:00.438Z,5.75
2023-09-23T20:34:27.514Z,6.03
2023-09-23T20:36:58.939Z,5.32
2023-09-23T20:39:26.160Z,5.30
2023-09-23T20:41:54.089Z,6.25
2023-09-23T20:44:21.560Z,5.60
2023-09-23T20:46:48.859Z,5.90
2023-09-23T20:49:16.089Z,5.05
2023-09-23T20:51:43.357Z,5.00
2023-09-23T20:54:10.562Z,5.72
2023-09-23T20:56:37.893Z,5.63
2023-09-23T20:59:05.214Z,5.50
2023-09-23T21:01:32.445Z,5.43
2023-09-23T21:03:59.739Z,5.03
2023-09-23T21:06:27.018Z,4.88
2023-09-23T21:08:54.307Z,5.28
2023-09-23T21:11:21.587Z,5.40
2023-09-23T21:13:49.588Z,6.30
2023-09-23T21:16:17.154Z,5.93
2023-09-23T21:18:45.229Z,5.95
2023-09-23T21:21:12.750Z,5.50
2023-09-23T21:23:39.943Z,5.10
2023-09-23T21:26:07.523Z,5.35
2023-09-23T21:28:34.757Z,5.60
2023-09-23T21:31:01.898Z,5.65
2023-09-23T21:33:29.226Z,5.53
2023-09-23T21:35:56.827Z,5.10
2023-09-23T21:38:24.008Z,4.40
2023-09-23T21:40:51.151Z,4.45
2023-09-23T21:43:18.714Z,5.55
2023-09-23T21:45:45.860Z,4.88
2023-09-23T21:48:14.182Z,4.93
2023-09-23T21:50:41.944Z,4.72
2023-09-23T21:53:12.012Z,4.95
2023-09-23T21:55:39.853Z,5.30
2023-09-23T21:58:07.078Z,5.05
2023-09-23T22:00:35.261Z,5.20
2023-09-23T22:03:02.758Z,5.43
2023-09-23T22:05:30.741Z,4.78
2023-09-23T22:08:00.153Z,5.55
2023-09-23T22:10:29.165Z,5.40
2023-09-23T22:12:57.565Z,6.07
2023-09-23T22:15:27.080Z,4.82
2023-09-23T22:17:55.257Z,4.90
2023-09-23T22:20:26.163Z,5.22
2023-09-23T22:22:54.990Z,4.85
2023-09-23T22:25:23.806Z,4.55
2023-09-23T22:27:53.236Z,4.50
2023-09-23T22:30:25.214Z,5.88
2023-09-23T22:32:57.770Z,5.07
2023-09-23T22:35:29.553Z,5.28
2023-09-23T22:38:02.639Z,4.90
2023-09-23T22:40:31.996Z,4.43
2023-09-23T22:42:59.883Z,4.90
2023-09-23T22:47:59.798Z,5.03
2023-09-23T22:50:28.010Z,5.07
2023-09-23T22:52:57.556Z,4.55
2023-09-23T22:55:25.889Z,4.88
2023-09-23T22:57:54.056Z,4.95
2023-09-23T23:00:27.293Z,4.40
2023-09-23T23:02:56.056Z,4.90
2023-09-23T23:05:26.360Z,4.22
2023-09-23T23:07:54.243Z,4.65
2023-09-23T23:10:21.359Z,4.47
2023-09-23T23:12:49.012Z,4.78
2023-09-23T23:15:18.190Z,4.55
2023-09-23T23:17:48.258Z,5.43
2023-09-23T23:20:23.975Z,4.50
2023-09-23T23:22:55.942Z,4.32
2023-09-23T23:25:25.184Z,5.30
2023-09-23T23:27:53.092Z,4.32
2023-09-23T23:30:21.883Z,4.30
2023-09-23T23:32:49.669Z,4.85
2023-09-23T23:35:26.600Z,3.83
2023-09-23T23:37:53.911Z,4.60
2023-09-23T23:40:22.618Z,4.30
2023-09-23T23:42:53.145Z,4.45
2023-09-23T23:45:21.420Z,4.43
2023-09-23T23:47:54.409Z,4.25
2023-09-23T23:50:24.113Z,4.32
2023-09-23T23:52:51.527Z,4.05
2023-09-23T23:55:19.611Z,4.40
2023-09-23T23:57:46.924Z,4.57
